Time;durP1;ratioP1;P1;durP2;ratioP2;P2;SDS_P1;SDS_P2;PMS_P1;PMS_P2;Temp;Humidity;BMP_temperature;BMP_pressure;BME280_temperature;BME280_humidity;BME280_pressure;Samples;Min_cycle;Max_cycle;Signal;HPM_P1;HPM_P2
2022/07/28 00:00:13;;;;;;;4.75;1.80;;;;;;;14.94;65.33;101918.19;5069515;28;20024;-70
2022/07/28 00:02:38;;;;;;;4.90;1.88;;;;;;;14.89;65.62;101908.69;5057875;28;20046;-71
2022/07/28 00:05:04;;;;;;;2.67;1.70;;;;;;;14.91;65.56;101912.13;5051274;28;20033;-70
2022/07/28 00:07:29;;;;;;;3.80;1.75;;;;;;;14.86;65.49;101908.75;5051882;28;20045;-70
2022/07/28 00:09:54;;;;;;;3.90;1.80;;;;;;;14.87;65.44;101913.09;5052609;28;20075;-70
2022/07/28 00:12:20;;;;;;;4.13;1.92;;;;;;;14.78;65.58;101906.34;5052143;28;20477;-70
2022/07/28 00:14:45;;;;;;;4.35;2.20;;;;;;;14.74;65.73;101900.25;5053372;28;20504;-70
2022/07/28 00:17:10;;;;;;;6.95;2.00;;;;;;;14.68;65.81;101900.44;5051332;28;20436;-70
2022/07/28 00:19:36;;;;;;;3.47;1.73;;;;;;;14.60;66.03;101909.38;5054223;28;20035;-71
2022/07/28 00:22:02;;;;;;;3.08;1.90;;;;;;;14.50;66.45;101911.31;5053874;28;20025;-71
2022/07/28 00:24:28;;;;;;;4.00;1.70;;;;;;;14.50;66.48;101917.47;5051674;28;20452;-71
2022/07/28 00:26:53;;;;;;;3.20;1.80;;;;;;;14.56;66.76;101912.97;5052617;28;20045;-70
2022/07/28 00:29:18;;;;;;;5.18;2.03;;;;;;;14.51;67.00;101916.56;5053797;28;20072;-70
2022/07/28 00:31:44;;;;;;;4.15;1.88;;;;;;;14.43;67.07;101909.75;5051629;28;20021;-70
2022/07/28 00:34:09;;;;;;;6.43;1.77;;;;;;;14.40;66.97;101905.41;5052648;28;20079;-71
2022/07/28 00:36:34;;;;;;;4.78;1.80;;;;;;;14.46;66.51;101905.28;5053906;28;20024;-70
2022/07/28 00:39:00;;;;;;;4.82;1.80;;;;;;;14.42;66.40;101908.88;5051923;28;20060;-71
2022/07/28 00:41:25;;;;;;;3.53;1.65;;;;;;;14.39;66.31;101903.69;5053093;28;20480;-71
2022/07/28 00:43:51;;;;;;;3.95;1.95;;;;;;;14.44;67.41;101909.69;5050155;28;20068;-70
2022/07/28 00:46:18;;;;;;;3.33;1.52;;;;;;;14.41;66.40;101906.28;5050965;28;20025;-70
2022/07/28 00:48:50;;;;;;;9.43;1.60;;;;;;;14.40;67.14;101904.56;5049170;28;20509;-70
2022/07/28 00:51:17;;;;;;;4.50;1.85;;;;;;;14.40;66.92;101904.56;5053366;28;20028;-71
2022/07/28 00:53:43;;;;;;;3.95;1.80;;;;;;;14.34;66.66;101891.56;5050928;28;20078;-70
2022/07/28 00:56:09;;;;;;;5.00;2.38;;;;;;;14.36;66.79;101889.78;5052361;28;20037;-71
2022/07/28 00:58:36;;;;;;;3.05;1.80;;;;;;;14.29;67.26;101879.44;5049579;28;20081;-71
2022/07/28 01:01:07;;;;;;;7.55;1.90;;;;;;;14.23;67.25;101876.94;5051672;28;20102;-70
2022/07/28 01:03:37;;;;;;;3.58;2.22;;;;;;;14.15;67.26;101886.72;5052112;28;20032;-70
2022/07/28 01:06:30;;;;;;;5.03;2.13;;;;;;;14.12;66.92;101894.66;5052541;28;20037;-70
2022/07/28 01:09:20;;;;;;;4.78;1.77;;;;;;;14.09;67.51;101899.97;5042382;28;20049;-71
2022/07/28 01:12:21;;;;;;;7.00;2.10;;;;;;;14.09;67.14;101894.72;5051677;28;20061;-70
2022/07/28 01:14:51;;;;;;;5.60;1.70;;;;;;;14.04;68.11;101888.72;5044008;28;20025;-70
2022/07/28 01:17:48;;;;;;;4.43;1.70;;;;;;;13.98;68.18;101901.97;5039367;28;20071;-70
2022/07/28 01:20:24;;;;;;;2.80;1.60;;;;;;;13.92;68.85;101892.44;5048289;28;20045;-71
2022/07/28 01:23:11;;;;;;;2.25;1.52;;;;;;;13.95;68.17;101895.00;5052012;28;20056;-70
2022/07/28 01:26:22;;;;;;;5.97;2.03;;;;;;;13.91;67.84;101889.88;5052839;28;20032;-70
2022/07/28 01:29:25;;;;;;;5.88;2.17;;;;;;;13.84;68.49;101889.16;5051640;28;20059;-70
2022/07/28 01:31:57;;;;;;;3.90;2.25;;;;;;;13.82;69.38;101883.06;5048421;28;20095;-70
2022/07/28 01:34:29;;;;;;;7.35;2.67;;;;;;;13.76;69.58;101883.19;5051466;28;20056;-70
2022/07/28 01:37:01;;;;;;;4.63;1.80;;;;;;;13.70;69.59;101881.56;5051511;28;20025;-70
2022/07/28 01:39:31;;;;;;;5.47;1.58;;;;;;;13.68;69.68;101877.25;5039272;28;20040;-70
2022/07/28 01:41:58;;;;;;;5.18;1.70;;;;;;;13.64;70.13;101865.97;5049720;28;20085;-70
2022/07/28 01:44:25;;;;;;;5.65;2.20;;;;;;;13.65;70.29;101872.91;5051918;28;20032;-70
2022/07/28 01:46:53;;;;;;;5.88;2.03;;;;;;;13.64;70.66;101871.19;5052462;28;20074;-70
2022/07/28 01:49:20;;;;;;;5.53;1.98;;;;;;;13.61;70.42;101871.25;5050833;28;20040;-70
2022/07/28 01:51:46;;;;;;;6.68;2.67;;;;;;;13.55;70.38;101874.84;5049155;28;20053;-70
2022/07/28 01:54:13;;;;;;;4.07;2.08;;;;;;;13.49;71.42;101863.63;5051919;28;20036;-71
2022/07/28 01:56:40;;;;;;;4.00;2.00;;;;;;;13.42;71.48;101867.25;5051725;28;20028;-70
2022/07/28 01:59:10;;;;;;;5.47;1.90;;;;;;;13.37;71.82;101867.34;5051958;28;20103;-70
2022/07/28 02:01:40;;;;;;;10.90;2.10;;;;;;;13.38;71.69;101863.84;5051045;28;20021;-70
2022/07/28 02:04:07;;;;;;;7.28;2.22;;;;;;;13.40;71.62;101858.56;5049857;28;20119;-70
2022/07/28 02:06:34;;;;;;;8.90;2.22;;;;;;;13.39;71.37;101860.31;5052017;28;20404;-70
2022/07/28 02:09:02;;;;;;;4.75;2.30;;;;;;;13.35;71.80;101858.66;5051715;28;20412;-70
2022/07/28 02:11:39;;;;;;;4.70;2.00;;;;;;;13.39;71.80;101859.47;5050075;28;20048;-70
2022/07/28 02:14:26;;;;;;;4.18;2.20;;;;;;;13.38;70.67;101857.75;5049852;28;20029;-70
2022/07/28 02:16:57;;;;;;;4.55;2.20;;;;;;;13.28;71.84;101847.44;5044775;28;20110;-70
2022/07/28 02:19:24;;;;;;;5.93;2.30;;;;;;;13.26;71.30;101849.22;5050953;28;20048;-70
2022/07/28 02:21:51;;;;;;;4.03;1.98;;;;;;;13.30;72.04;101850.88;5049063;28;20484;-70
2022/07/28 02:24:21;;;;;;;7.35;2.30;;;;;;;13.24;71.83;101848.41;5049506;28;20033;-70
2022/07/28 02:26:51;;;;;;;6.15;2.20;;;;;;;13.16;72.21;101847.63;5050759;28;20052;-70
2022/07/28 02:29:23;;;;;;;4.57;2.20;;;;;;;13.13;73.44;101847.69;5051688;28;20508;-70
2022/07/28 02:31:53;;;;;;;6.07;2.20;;;;;;;13.16;72.92;101844.16;5049545;28;20025;-70
2022/07/28 02:34:22;;;;;;;6.68;2.15;;;;;;;13.10;72.75;101845.09;5047249;28;20037;-70
2022/07/28 02:36:56;;;;;;;7.28;2.70;;;;;;;13.10;73.22;101852.97;5049505;28;20129;-70
2022/07/28 02:39:25;;;;;;;5.20;2.20;;;;;;;13.08;73.04;101845.16;5050881;28;20098;-70
2022/07/28 02:42:00;;;;;;;4.15;2.20;;;;;;;13.09;73.00;101853.88;5051299;28;20029;-70
2022/07/28 02:44:29;;;;;;;6.28;2.63;;;;;;;13.08;72.99;101853.00;5049786;28;20021;-70
2022/07/28 02:46:56;;;;;;;4.22;2.40;;;;;;;12.96;73.16;101836.66;5050382;28;20037;-70
2022/07/28 02:49:30;;;;;;;4.57;2.05;;;;;;;13.06;72.60;101846.06;5051278;28;20027;-70
2022/07/28 02:51:58;;;;;;;6.57;2.80;;;;;;;12.98;73.61;101848.81;5050463;28;20028;-70
2022/07/28 02:54:26;;;;;;;4.32;2.60;;;;;;;12.96;73.79;101852.34;5049160;28;20032;-70
2022/07/28 02:56:52;;;;;;;5.35;2.30;;;;;;;12.91;73.64;101856.78;5049801;28;20036;-70
2022/07/28 02:59:19;;;;;;;4.78;2.20;;;;;;;12.89;74.42;101848.97;5049113;28;20112;-70
2022/07/28 03:01:46;;;;;;;4.72;2.40;;;;;;;12.74;74.02;101849.22;5050626;28;20044;-70
2022/07/28 03:04:13;;;;;;;5.80;2.30;;;;;;;12.72;75.02;101838.81;5050912;28;20431;-70
2022/07/28 03:06:40;;;;;;;6.78;2.50;;;;;;;12.71;74.95;101839.66;5048369;28;20519;-70
2022/07/28 03:09:08;;;;;;;5.88;2.30;;;;;;;12.69;74.57;101846.69;5050013;28;20061;-70
2022/07/28 03:11:33;;;;;;;8.05;2.63;;;;;;;12.60;74.68;101841.59;5050649;28;20388;-70
2022/07/28 03:13:58;;;;;;;4.05;2.50;;;;;;;12.55;74.76;101843.41;5050597;28;20017;-71
2022/07/28 03:16:24;;;;;;;6.55;2.80;;;;;;;12.50;74.78;101846.13;5048631;28;20021;-71
2022/07/28 03:18:49;;;;;;;3.92;2.58;;;;;;;12.48;75.19;101841.78;5049905;28;20475;-70
2022/07/28 03:21:14;;;;;;;4.20;2.30;;;;;;;12.38;74.90;101851.53;5050331;28;20061;-70
2022/07/28 03:23:46;;;;;;;4.00;2.35;;;;;;;12.31;75.22;101844.66;5050830;28;20040;-70
2022/07/28 03:26:18;;;;;;;7.13;2.25;;;;;;;12.25;75.70;101856.06;5049941;28;20033;-70
2022/07/28 03:28:44;;;;;;;3.17;2.10;;;;;;;12.25;75.53;101852.59;5049945;28;20151;-70
2022/07/28 03:31:12;;;;;;;8.52;2.38;;;;;;;12.17;75.63;101852.72;5049871;28;20025;-70
2022/07/28 03:33:38;;;;;;;4.07;2.40;;;;;;;12.12;76.08;101849.28;5050816;28;20033;-70
2022/07/28 03:36:14;;;;;;;4.50;2.38;;;;;;;12.09;75.75;101849.31;5049577;28;20025;-70
2022/07/28 03:38:47;;;;;;;5.03;2.17;;;;;;;12.10;75.87;101848.47;5050683;28;20032;-70
2022/07/28 03:41:15;;;;;;;5.20;2.60;;;;;;;12.12;76.40;101849.28;5050418;28;20108;-70
2022/07/28 03:43:43;;;;;;;8.13;2.28;;;;;;;12.16;76.61;101848.34;5049799;28;20115;-70
2022/07/28 03:46:08;;;;;;;5.15;2.10;;;;;;;12.09;76.38;101847.56;5048956;28;20086;-70
2022/07/28 03:48:33;;;;;;;5.40;2.65;;;;;;;12.09;76.54;101849.31;5049935;28;20032;-70
2022/07/28 03:50:59;;;;;;;7.28;2.70;;;;;;;12.06;75.62;101846.75;5050611;28;20021;-70
2022/07/28 03:53:25;;;;;;;8.63;2.67;;;;;;;12.00;75.68;101846.81;5050869;28;20059;-70
2022/07/28 03:55:52;;;;;;;9.10;3.13;;;;;;;12.02;76.36;101851.16;5048634;28;20460;-70
2022/07/28 03:58:18;;;;;;;4.50;2.53;;;;;;;12.02;76.32;101852.91;5049751;28;20362;-70
2022/07/28 04:00:44;;;;;;;5.75;2.78;;;;;;;11.93;76.05;101844.31;5050632;28;20017;-70
2022/07/28 04:03:09;;;;;;;4.43;2.47;;;;;;;11.98;76.86;101848.63;5049834;28;20040;-70
2022/07/28 04:05:35;;;;;;;7.28;2.75;;;;;;;11.98;76.85;101852.09;5048562;28;20518;-70
2022/07/28 04:08:00;;;;;;;6.43;2.90;;;;;;;11.95;76.20;101846.91;5049844;28;20598;-70
2022/07/28 04:10:25;;;;;;;3.85;2.47;;;;;;;11.91;75.71;101850.44;5050130;28;20033;-70
2022/07/28 04:12:51;;;;;;;9.40;3.13;;;;;;;11.87;76.13;101849.63;5049423;28;20028;-70
2022/07/28 04:15:17;;;;;;;8.52;2.90;;;;;;;11.90;76.71;101852.19;5051212;28;20028;-70
2022/07/28 04:17:44;;;;;;;5.57;2.90;;;;;;;11.93;76.51;101849.56;5052306;28;20472;-70
2022/07/28 04:20:10;;;;;;;3.95;2.78;;;;;;;11.98;77.09;101853.84;5046487;28;20029;-70
2022/07/28 04:22:36;;;;;;;6.97;2.85;;;;;;;11.95;76.64;101853.00;5053219;28;20032;-70
2022/07/28 04:25:02;;;;;;;4.78;2.65;;;;;;;11.93;76.39;101844.31;5051764;28;20247;-70
2022/07/28 04:27:28;;;;;;;6.22;2.75;;;;;;;11.92;76.72;101847.81;5049374;28;20083;-70
2022/07/28 04:29:53;;;;;;;9.52;2.97;;;;;;;11.98;76.42;101846.88;5053767;28;20087;-70
2022/07/28 04:32:18;;;;;;;7.00;2.90;;;;;;;12.04;75.92;101843.31;5051221;28;20525;-70
2022/07/28 04:34:43;;;;;;;6.60;2.80;;;;;;;12.04;76.18;101838.94;5053675;28;20029;-70
2022/07/28 04:37:09;;;;;;;10.02;2.83;;;;;;;12.03;76.26;101839.81;5050968;28;20060;-70
2022/07/28 04:39:34;;;;;;;11.05;2.80;;;;;;;12.04;76.65;101840.69;5052850;28;20025;-70
2022/07/28 04:42:00;;;;;;;5.18;2.80;;;;;;;12.06;76.10;101847.59;5053225;28;20083;-70
2022/07/28 04:44:26;;;;;;;10.43;3.63;;;;;;;12.06;76.06;101846.75;5051366;28;20423;-70
2022/07/28 04:46:51;;;;;;;4.95;3.10;;;;;;;12.06;76.41;101842.38;5051424;28;20033;-70
2022/07/28 04:49:16;;;;;;;8.93;3.20;;;;;;;12.10;76.01;101843.22;5053367;28;20392;-70
2022/07/28 04:51:47;;;;;;;7.45;3.20;;;;;;;12.12;76.02;101842.31;5052973;28;20075;-70
2022/07/28 04:54:12;;;;;;;6.20;3.00;;;;;;;12.15;76.01;101839.66;5052546;28;20827;-70
2022/07/28 04:56:37;;;;;;;6.57;3.03;;;;;;;12.18;76.33;101837.00;5052619;28;20025;-70
2022/07/28 04:59:03;;;;;;;5.65;2.88;;;;;;;12.21;76.08;101843.94;5052796;28;20028;-70
2022/07/28 05:01:28;;;;;;;13.75;3.17;;;;;;;12.24;75.95;101843.88;5052268;28;20039;-70
2022/07/28 05:03:54;;;;;;;6.32;3.15;;;;;;;12.28;75.71;101839.47;5052286;28;20357;-70
2022/07/28 05:06:19;;;;;;;5.20;2.80;;;;;;;12.30;76.18;101835.97;5051924;28;20063;-70
2022/07/28 05:08:44;;;;;;;8.32;2.83;;;;;;;12.33;75.93;101842.91;5051269;28;20075;-70
2022/07/28 05:11:09;;;;;;;7.65;2.67;;;;;;;12.34;75.65;101840.25;5051815;28;20082;-70
2022/07/28 05:13:35;;;;;;;5.65;2.75;;;;;;;12.42;75.74;101840.13;5051341;28;20384;-70
2022/07/28 05:16:01;;;;;;;4.85;2.78;;;;;;;12.46;75.38;101838.31;5052414;28;20071;-70
2022/07/28 05:18:27;;;;;;;5.53;2.80;;;;;;;12.52;75.19;101851.31;5052789;28;20037;-70
2022/07/28 05:20:52;;;;;;;15.80;3.20;;;;;;;12.58;75.35;101840.75;5050435;28;20480;-70
2022/07/28 05:23:17;;;;;;;7.18;3.30;;;;;;;12.68;74.96;101857.16;5050890;28;20025;-70
2022/07/28 05:25:42;;;;;;;5.00;2.60;;;;;;;12.72;74.93;101858.84;5051800;28;20100;-70
2022/07/28 05:28:08;;;;;;;8.48;3.45;;;;;;;12.73;74.83;101858.84;5051229;28;20086;-70
2022/07/28 05:30:35;;;;;;;8.80;3.10;;;;;;;12.75;74.95;101851.84;5052676;28;20060;-70
2022/07/28 05:33:01;;;;;;;6.43;2.72;;;;;;;12.83;74.95;101846.47;5051749;28;20079;-70
2022/07/28 05:35:26;;;;;;;7.35;2.90;;;;;;;12.94;74.97;101856.75;5050323;28;20028;-70
2022/07/28 05:37:51;;;;;;;5.10;2.70;;;;;;;13.06;75.09;101848.69;5052582;28;20024;-70
2022/07/28 05:40:17;;;;;;;6.22;2.80;;;;;;;13.15;74.63;101856.38;5051180;28;20429;-70
2022/07/28 05:42:43;;;;;;;7.22;3.25;;;;;;;13.22;74.07;101844.91;5051584;28;20484;-70
2022/07/28 05:45:09;;;;;;;4.82;2.55;;;;;;;13.34;73.64;101849.94;5051550;28;20067;-71
2022/07/28 05:47:51;;;;;;;6.70;3.30;;;;;;;13.56;72.72;101847.75;5050741;28;20044;-70
2022/07/28 05:50:18;;;;;;;7.15;3.50;;;;;;;13.82;72.02;101844.59;5051777;28;20032;-70
2022/07/28 05:52:44;;;;;;;10.45;3.35;;;;;;;14.00;70.75;101845.97;5050598;28;20029;-70
2022/07/28 05:55:09;;;;;;;6.72;3.25;;;;;;;14.16;71.19;101851.75;5051554;28;20057;-70
2022/07/28 05:57:36;;;;;;;11.15;3.40;;;;;;;14.20;70.60;101853.41;5051236;28;20519;-70
2022/07/28 06:00:04;;;;;;;7.47;2.75;;;;;;;14.27;70.07;101852.38;5052066;28;20111;-70
2022/07/28 06:02:29;;;;;;;7.10;2.70;;;;;;;14.33;69.28;101846.13;5047829;28;20029;-70
2022/07/28 06:04:55;;;;;;;5.57;2.30;;;;;;;14.35;68.88;101848.69;5051172;28;20092;-70
2022/07/28 06:07:21;;;;;;;5.93;2.50;;;;;;;14.39;69.31;101845.97;5051779;28;20472;-71
2022/07/28 06:09:46;;;;;;;7.63;2.65;;;;;;;14.42;68.95;101840.66;5051173;28;20036;-70
2022/07/28 06:12:11;;;;;;;6.07;2.70;;;;;;;14.51;68.67;101850.09;5049277;28;20159;-70
2022/07/28 06:14:37;;;;;;;7.32;2.92;;;;;;;14.61;68.92;101842.88;5051992;28;20434;-71
2022/07/28 06:17:02;;;;;;;9.43;3.10;;;;;;;14.65;68.53;101842.78;5051091;28;20052;-70
2022/07/28 06:19:27;;;;;;;10.65;2.70;;;;;;;14.67;68.46;101848.81;5052018;28;20021;-70
2022/07/28 06:21:53;;;;;;;4.82;2.80;;;;;;;14.70;68.31;101846.13;5050676;28;20476;-70
2022/07/28 06:24:18;;;;;;;7.90;2.42;;;;;;;14.77;67.82;101844.22;5050038;28;20112;-70
2022/07/28 06:26:43;;;;;;;6.40;2.35;;;;;;;14.80;67.75;101846.75;5050627;28;20025;-70
2022/07/28 06:29:09;;;;;;;7.13;2.70;;;;;;;14.78;68.04;101842.44;5050341;28;20063;-71
2022/07/28 06:31:34;;;;;;;5.45;2.65;;;;;;;14.85;67.90;101839.66;5049712;28;20392;-70
2022/07/28 06:34:00;;;;;;;7.22;2.70;;;;;;;14.85;67.01;101839.66;5051542;28;20464;-70
2022/07/28 06:36:25;;;;;;;7.20;2.50;;;;;;;14.88;67.48;101849.22;5050844;28;20043;-70
2022/07/28 06:38:50;;;;;;;6.57;2.47;;;;;;;14.95;66.53;101851.63;5048175;28;20040;-70
2022/07/28 06:41:16;;;;;;;7.75;2.38;;;;;;;14.99;65.84;101842.78;5047493;28;20029;-70
2022/07/28 06:43:41;;;;;;;9.52;2.58;;;;;;;15.00;66.95;101851.50;5048957;28;20065;-70
2022/07/28 06:46:06;;;;;;;6.45;2.28;;;;;;;15.02;65.72;101841.84;5051103;28;20039;-71
2022/07/28 06:48:32;;;;;;;6.95;2.50;;;;;;;15.07;65.63;101832.06;5052032;28;20025;-70
2022/07/28 06:50:58;;;;;;;5.80;2.58;;;;;;;15.11;65.64;101838.97;5050777;28;20105;-70
2022/07/28 06:53:24;;;;;;;4.32;2.30;;;;;;;15.12;65.97;101843.31;5051581;28;20518;-70
2022/07/28 06:55:50;;;;;;;5.38;2.20;;;;;;;15.18;66.02;101845.78;5050977;28;20032;-71
2022/07/28 06:58:15;;;;;;;5.43;2.28;;;;;;;15.22;65.25;101838.69;5047970;28;20061;-71
2022/07/28 07:00:40;;;;;;;4.55;2.50;;;;;;;15.24;65.85;101850.00;5051104;28;20116;-70
2022/07/28 07:03:05;;;;;;;4.70;2.00;;;;;;;15.28;65.15;101849.03;5050330;28;20071;-71
2022/07/28 07:05:31;;;;;;;7.30;2.50;;;;;;;15.31;65.05;101848.09;5045298;28;20049;-71
2022/07/28 07:07:57;;;;;;;8.43;2.08;;;;;;;15.36;65.05;101852.28;5044110;28;20397;-71
2022/07/28 07:10:22;;;;;;;7.85;2.55;;;;;;;15.43;64.93;101848.63;5050370;28;20099;-71
2022/07/28 07:12:48;;;;;;;6.57;2.55;;;;;;;15.60;64.99;101844.66;5049608;28;20440;-71
2022/07/28 07:15:13;;;;;;;6.75;2.25;;;;;;;15.81;64.58;101841.41;5050817;28;20108;-71
2022/07/28 07:17:38;;;;;;;5.93;2.50;;;;;;;16.00;63.68;101839.09;5051295;28;20143;-70
2022/07/28 07:20:06;;;;;;;7.15;2.60;;;;;;;16.16;63.97;101839.50;5049500;28;20033;-71
2022/07/28 07:22:31;;;;;;;7.60;2.10;;;;;;;16.42;63.01;101838.69;5051257;28;20013;-70
2022/07/28 07:24:56;;;;;;;5.47;2.67;;;;;;;16.64;61.42;101846.72;5048626;28;21199;-70
2022/07/28 07:27:21;;;;;;;5.65;2.50;;;;;;;16.65;60.59;101842.34;5048934;28;20064;-70
2022/07/28 07:29:47;;;;;;;7.97;2.35;;;;;;;16.50;60.11;101843.69;5050050;28;20037;-70
2022/07/28 07:32:12;;;;;;;6.63;2.00;;;;;;;16.35;60.62;101840.66;5050891;28;20027;-71
2022/07/28 07:34:38;;;;;;;4.07;2.42;;;;;;;16.31;61.14;101838.16;5050370;28;20027;-71
2022/07/28 07:37:04;;;;;;;5.20;2.00;;;;;;;16.28;61.63;101833.84;5050855;28;20419;-71
2022/07/28 07:39:30;;;;;;;4.35;1.90;;;;;;;16.26;60.47;101837.44;5050756;28;20532;-70
2022/07/28 07:41:56;;;;;;;5.43;2.30;;;;;;;16.23;62.05;101834.91;5049924;28;20032;-71
2022/07/28 07:44:21;;;;;;;5.70;2.00;;;;;;;16.32;62.47;101830.22;5050572;28;20017;-71
2022/07/28 07:46:46;;;;;;;6.95;1.90;;;;;;;16.42;61.04;101825.53;5050859;28;20082;-70
2022/07/28 07:49:12;;;;;;;6.13;2.35;;;;;;;16.48;62.09;101822.69;5049791;28;20100;-70
2022/07/28 07:51:37;;;;;;;4.80;1.98;;;;;;;16.54;60.65;101827.75;5053964;28;20439;-70
2022/07/28 07:54:02;;;;;;;4.90;1.85;;;;;;;16.57;60.15;101830.28;5053795;28;20029;-71
2022/07/28 07:56:28;;;;;;;3.13;1.83;;;;;;;16.60;60.21;101829.31;5054642;28;20033;-71
2022/07/28 07:58:53;;;;;;;7.22;2.10;;;;;;;16.56;60.03;101831.19;5054297;28;20036;-71
2022/07/28 08:01:18;;;;;;;5.10;2.15;;;;;;;16.51;61.81;101824.34;5053831;28;20503;-71
2022/07/28 08:03:45;;;;;;;5.30;2.00;;;;;;;16.52;60.00;101826.09;5054343;28;20029;-71
2022/07/28 08:06:10;;;;;;;7.45;2.40;;;;;;;16.62;61.71;101828.38;5054128;28;20071;-71
2022/07/28 08:08:35;;;;;;;6.85;1.88;;;;;;;16.72;60.86;101828.06;5053475;28;20045;-71
2022/07/28 08:11:01;;;;;;;4.43;2.10;;;;;;;16.84;60.45;101825.06;5054379;28;20025;-71
2022/07/28 08:13:26;;;;;;;6.43;3.47;;;;;;;16.91;59.91;101818.66;5054174;28;20108;-71
2022/07/28 08:15:51;;;;;;;8.48;2.10;;;;;;;16.96;60.38;101816.72;5053493;28;20028;-71
2022/07/28 08:18:16;;;;;;;10.25;2.30;;;;;;;17.03;60.12;101820.00;5054296;28;20017;-70
2022/07/28 08:20:42;;;;;;;7.60;1.98;;;;;;;17.12;59.90;101824.09;5054301;28;20013;-71
2022/07/28 08:23:07;;;;;;;7.78;2.58;;;;;;;17.16;60.35;101817.78;5053258;28;20033;-71
2022/07/28 08:25:36;;;;;;;4.85;2.10;;;;;;;17.24;59.24;101823.66;5053970;28;20134;-71
2022/07/28 08:28:02;;;;;;;5.03;2.10;;;;;;;17.32;58.28;101826.88;5053754;28;20494;-71
2022/07/28 08:30:27;;;;;;;5.22;1.83;;;;;;;17.39;58.83;101820.44;5053250;28;20021;-71
2022/07/28 08:32:52;;;;;;;4.70;2.05;;;;;;;17.42;58.98;101817.72;5053860;28;20483;-71
2022/07/28 08:35:17;;;;;;;4.47;2.40;;;;;;;17.50;58.71;101818.31;5048595;28;20407;-71
2022/07/28 08:37:43;;;;;;;5.88;2.00;;;;;;;17.57;58.77;101823.34;5051264;28;20432;-71
2022/07/28 08:40:15;;;;;;;4.43;1.90;;;;;;;17.65;58.14;101808.94;5052511;28;20397;-71
2022/07/28 08:42:55;;;;;;;5.43;2.00;;;;;;;17.70;57.87;101809.66;5052006;28;20060;-70
2022/07/28 08:45:23;;;;;;;6.78;2.00;;;;;;;17.85;57.14;101813.50;5052893;28;20411;-70
2022/07/28 08:47:49;;;;;;;5.85;2.15;;;;;;;17.95;58.01;101804.34;5053337;28;20025;-71
2022/07/28 08:50:20;;;;;;;7.63;2.05;;;;;;;18.11;57.22;101811.63;5052924;28;20499;-71
2022/07/28 08:52:48;;;;;;;9.95;2.10;;;;;;;18.19;56.81;101796.34;5052405;28;20016;-74
2022/07/28 08:55:16;;;;;;;3.47;1.73;;;;;;;18.32;56.39;101808.13;5052583;28;20415;-74
2022/07/28 08:57:41;;;;;;;8.98;2.47;;;;;;;18.41;56.74;101812.16;5050560;28;20041;-75
2022/07/28 09:00:08;;;;;;;9.25;1.95;;;;;;;18.53;55.68;101806.38;5053478;28;20032;-74
2022/07/28 09:02:41;;;;;;;5.93;2.03;;;;;;;18.67;57.19;101809.34;5053075;28;20023;-74
2022/07/28 09:05:08;;;;;;;6.88;2.30;;;;;;;18.80;55.29;101798.25;5050068;28;20025;-74
2022/07/28 09:07:36;;;;;;;6.18;2.00;;;;;;;18.90;54.59;101789.88;5057856;28;20065;-74
2022/07/28 09:10:04;;;;;;;5.63;1.55;;;;;;;18.93;54.12;101783.59;5053347;28;20032;-74
2022/07/28 09:12:32;;;;;;;9.35;2.17;;;;;;;18.99;54.09;101785.13;5051260;28;20082;-74
2022/07/28 09:14:58;;;;;;;3.67;1.50;;;;;;;18.99;52.98;101771.91;5048579;28;20118;-71
2022/07/28 09:17:23;;;;;;;5.35;2.10;;;;;;;19.07;53.14;101772.44;5052340;28;20469;-71
2022/07/28 09:19:48;;;;;;;6.45;2.10;;;;;;;19.17;52.96;101771.09;5051768;28;20041;-71
2022/07/28 09:22:13;;;;;;;4.68;1.73;;;;;;;19.24;53.84;101761.97;5052593;28;20036;-71
2022/07/28 09:24:41;;;;;;;5.88;1.80;;;;;;;19.36;53.55;101761.41;5052933;28;20021;-71
2022/07/28 09:27:10;;;;;;;5.18;2.05;;;;;;;19.47;52.80;101766.19;5051906;28;20021;-72
2022/07/28 09:29:38;;;;;;;8.23;2.05;;;;;;;19.61;51.98;101762.91;5052851;28;20025;-71
2022/07/28 09:32:04;;;;;;;9.38;1.70;;;;;;;19.67;51.87;101745.94;5052650;28;20512;-71
2022/07/28 09:34:49;;;;;;;6.95;2.17;;;;;;;19.71;52.21;101740.41;5052488;28;20122;-71
2022/07/28 09:37:26;;;;;;;5.65;1.83;;;;;;;19.81;52.15;101741.69;5052557;28;20124;-71
2022/07/28 09:39:56;;;;;;;2.80;1.60;;;;;;;19.96;51.64;101739.25;5051903;28;20114;-72
2022/07/28 09:42:22;;;;;;;8.90;1.80;;;;;;;20.15;51.89;101749.81;5052533;28;20075;-71
2022/07/28 09:45:04;;;;;;;7.70;1.77;;;;;;;20.21;50.68;101741.53;5052463;28;20025;-71
2022/07/28 09:47:31;;;;;;;6.35;1.75;;;;;;;20.24;49.54;101744.03;5051513;28;20473;-71
2022/07/28 09:49:57;;;;;;;7.18;1.60;;;;;;;20.24;50.17;101736.97;5051819;28;20414;-71
2022/07/28 09:52:35;;;;;;;7.05;2.25;;;;;;;20.30;49.84;101744.56;5048697;28;20040;-75
2022/07/28 09:55:08;;;;;;;5.85;1.67;;;;;;;20.37;49.94;101733.69;5050805;28;20040;-75
2022/07/28 09:57:36;;;;;;;;;;;;;;;20.57;51.71;101746.84;5054183;28;20029;-75
2022/07/28 10:00:05;;;;;;;3.40;1.58;;;;;;;20.74;49.36;101746.81;5051694;28;19923;-74
2022/07/28 10:02:31;;;;;;;9.35;2.20;;;;;;;20.74;48.22;101740.66;5051486;28;20472;-74
2022/07/28 10:04:59;;;;;;;4.43;1.90;;;;;;;20.80;48.35;101743.84;5049049;28;20059;-74
2022/07/28 10:07:27;;;;;;;2.30;1.50;;;;;;;20.87;49.38;101746.19;5047772;28;20048;-75
2022/07/28 10:10:06;;;;;;;5.07;1.90;;;;;;;20.97;48.96;101739.44;5045034;28;20158;-74
2022/07/28 10:12:33;;;;;;;8.38;2.17;;;;;;;21.07;49.45;101748.63;5051660;28;20104;-74
2022/07/28 10:17:56;;;;;;;9.77;1.60;;;;;;;21.27;47.58;101745.75;5043380;28;20060;-75
2022/07/28 10:20:21;;;;;;;7.85;2.10;;;;;;;21.29;46.42;101740.38;5049832;28;20021;-75
2022/07/28 10:22:48;;;;;;;4.72;1.70;;;;;;;21.44;47.08;101731.59;5049058;28;20457;-74
2022/07/28 10:25:15;;;;;;;9.52;1.60;;;;;;;21.42;46.54;101730.00;5050981;28;20033;-74
2022/07/28 10:27:41;;;;;;;7.90;2.03;;;;;;;21.56;44.86;101732.72;5050119;28;20108;-75
2022/07/28 10:30:07;;;;;;;5.32;1.60;;;;;;;21.63;46.26;101727.94;5050459;28;20086;-75
2022/07/28 10:32:40;;;;;;;5.97;1.67;;;;;;;21.74;45.81;101723.75;5051400;28;20028;-74
2022/07/28 10:35:10;;;;;;;4.50;1.60;;;;;;;21.88;45.07;101722.97;5049697;28;20170;-75
2022/07/28 10:37:47;;;;;;;3.20;1.50;;;;;;;22.03;44.90;101730.97;5047182;28;20105;-75
2022/07/28 10:40:14;;;;;;;8.65;1.73;;;;;;;22.11;44.48;101718.97;5050861;28;20488;-75
2022/07/28 10:42:40;;;;;;;3.58;1.42;;;;;;;22.22;43.14;101720.19;5049593;28;20025;-75
2022/07/28 10:45:07;;;;;;;3.25;1.33;;;;;;;22.39;43.65;101720.03;5049177;28;20021;-75
2022/07/28 10:47:32;;;;;;;8.10;1.70;;;;;;;22.48;43.23;101723.97;5051182;28;20032;-75
2022/07/28 10:49:58;;;;;;;4.75;1.52;;;;;;;22.59;43.09;101722.34;5050520;28;20036;-75
2022/07/28 10:52:25;;;;;;;4.57;1.50;;;;;;;22.84;43.48;101720.88;5048009;28;20025;-76
2022/07/28 10:55:15;;;;;;;4.00;1.70;;;;;;;22.80;42.37;101719.38;5049453;28;20031;-76
2022/07/28 10:57:57;;;;;;;3.20;1.55;;;;;;;22.82;42.37;101714.78;5046588;28;20036;-76
2022/07/28 11:00:26;;;;;;;7.63;1.80;;;;;;;22.73;42.96;101704.75;5049513;28;20055;-75
2022/07/28 11:03:02;;;;;;;5.07;1.20;;;;;;;22.89;42.46;101721.47;5051027;28;20021;-74
2022/07/28 11:05:33;;;;;;;2.72;1.42;;;;;;;23.06;41.94;101701.84;5049773;28;20086;-74
2022/07/28 11:08:02;;;;;;;4.07;1.50;;;;;;;23.14;42.15;101697.72;5049994;28;20500;-74
2022/07/28 11:10:29;;;;;;;6.55;1.40;;;;;;;23.25;40.70;101709.50;5048027;28;20033;-74
2022/07/28 11:12:57;;;;;;;3.85;1.58;;;;;;;23.32;40.68;101702.88;5047069;28;20469;-74
2022/07/28 11:15:28;;;;;;;7.72;1.60;;;;;;;23.47;42.01;101709.00;5049062;28;20022;-74
2022/07/28 11:18:04;;;;;;;3.25;1.50;;;;;;;23.57;39.76;101683.50;5046114;28;20035;-74
2022/07/28 11:21:01;;;;;;;5.72;1.48;;;;;;;23.84;42.28;101688.88;5048513;28;20025;-75
2022/07/28 11:23:42;;;;;;;5.07;1.70;;;;;;;24.03;41.42;101697.34;5049416;28;20403;-74
2022/07/28 11:26:21;;;;;;;7.60;2.00;;;;;;;24.10;39.62;101687.13;5054348;28;20033;-74
2022/07/28 11:29:05;;;;;;;3.95;1.85;;;;;;;24.28;40.47;101677.88;5052266;28;20064;-74
2022/07/28 11:31:43;;;;;;;3.83;1.50;;;;;;;24.44;38.48;101682.22;5055094;28;20029;-74